createdAt,value
2018-12-17T00:00:18.592Z,99.98
2018-12-17T00:02:49.256Z,99.04
2018-12-17T00:05:17.500Z,98.94
2018-12-17T00:07:45.105Z,99.97
2018-12-17T00:10:12.812Z,100.00
2018-12-17T00:12:41.493Z,100.00
2018-12-17T00:15:09.133Z,100.00
2018-12-17T00:17:36.790Z,100.00
2018-12-17T00:20:07.974Z,100.00
2018-12-17T00:22:35.573Z,100.00
2018-12-17T00:25:04.483Z,100.00
2018-12-17T00:27:32.084Z,100.00
2018-12-17T00:30:00.852Z,100.00
2018-12-17T00:32:28.463Z,100.00
2018-12-17T00:34:56.076Z,100.00
2018-12-17T00:37:23.740Z,100.00
2018-12-17T00:39:51.355Z,100.00
2018-12-17T00:42:19.013Z,100.00
2018-12-17T00:44:46.596Z,100.00
2018-12-17T00:47:14.247Z,100.00
2018-12-17T00:49:41.828Z,100.00
2018-12-17T00:52:09.926Z,100.00
2018-12-17T00:54:37.522Z,100.00
2018-12-17T00:57:05.167Z,100.00
2018-12-17T00:59:32.857Z,99.63
2018-12-17T01:02:00.554Z,99.52
2018-12-17T01:04:28.135Z,99.87
2018-12-17T01:06:55.825Z,100.00
2018-12-17T01:09:23.691Z,100.00
2018-12-17T01:11:53.271Z,100.00
2018-12-17T01:14:20.878Z,100.00
2018-12-17T01:16:50.290Z,100.00
2018-12-17T01:19:17.872Z,100.00
2018-12-17T01:21:46.145Z,100.00
2018-12-17T01:24:13.794Z,100.00
2018-12-17T01:26:42.338Z,100.00
2018-12-17T01:29:10.888Z,100.00
2018-12-17T01:31:38.539Z,100.00
2018-12-17T01:34:06.430Z,100.00
2018-12-17T01:36:34.083Z,100.00
2018-12-17T01:39:01.702Z,100.00
2018-12-17T01:41:29.359Z,100.00
2018-12-17T01:43:57.034Z,100.00
2018-12-17T01:46:25.345Z,99.42
2018-12-17T01:48:53.816Z,98.76
2018-12-17T01:51:21.511Z,98.42
2018-12-17T01:53:49.134Z,99.17
2018-12-17T01:56:16.714Z,99.24
2018-12-17T01:58:44.489Z,98.98
2018-12-17T02:01:12.140Z,98.70
2018-12-17T02:03:39.827Z,98.66
2018-12-17T02:06:08.494Z,98.68
2018-12-17T02:08:36.181Z,98.58
2018-12-17T02:11:04.062Z,98.48
2018-12-17T02:13:31.693Z,99.09
2018-12-17T02:15:59.329Z,99.53
2018-12-17T02:18:26.975Z,99.26
2018-12-17T02:20:54.565Z,100.00
2018-12-17T02:23:22.260Z,99.90
2018-12-17T02:29:14.348Z,100.00
2018-12-17T02:35:36.344Z,100.00
2018-12-17T02:41:00.027Z,98.21
2018-12-17T02:43:28.467Z,97.85
2018-12-17T02:45:56.181Z,97.73
2018-12-17T02:48:23.829Z,97.07
2018-12-17T02:50:55.076Z,96.35
2018-12-17T02:53:22.743Z,97.25
2018-12-17T02:55:50.371Z,98.12
2018-12-17T02:58:18.068Z,98.54
2018-12-17T03:00:45.766Z,98.60
2018-12-17T03:03:13.400Z,99.22
2018-12-17T03:05:41.101Z,99.72
2018-12-17T03:08:08.708Z,98.72
2018-12-17T03:10:36.354Z,97.70
2018-12-17T03:13:03.974Z,98.37
2018-12-17T03:15:31.628Z,98.30
2018-12-17T03:17:59.204Z,97.63
2018-12-17T03:20:26.864Z,95.37
2018-12-17T03:22:54.517Z,95.27
2018-12-17T03:25:22.138Z,95.86
2018-12-17T03:27:49.769Z,95.74
2018-12-17T03:30:17.411Z,95.86
2018-12-17T03:32:44.998Z,96.71
2018-12-17T03:35:12.697Z,97.89
2018-12-17T03:37:42.150Z,99.62
2018-12-17T03:40:09.755Z,100.00
2018-12-17T03:42:38.822Z,100.00
2018-12-17T03:45:07.266Z,100.00
2018-12-17T03:47:34.860Z,100.00
2018-12-17T03:50:02.607Z,100.00
2018-12-17T03:52:31.254Z,100.00
2018-12-17T03:54:59.095Z,99.71
2018-12-17T03:57:26.781Z,100.00
2018-12-17T03:59:54.422Z,100.00
2018-12-17T04:02:22.097Z,99.96
2018-12-17T04:04:51.764Z,98.15
2018-12-17T04:07:19.366Z,97.52
2018-12-17T04:09:47.145Z,97.30
2018-12-17T04:12:14.814Z,98.50
2018-12-17T04:14:42.393Z,99.13
2018-12-17T04:17:10.034Z,98.60
2018-12-17T04:19:37.698Z,98.97
2018-12-17T04:22:05.496Z,98.93
2018-12-17T04:24:33.108Z,98.90
2018-12-17T04:27:00.777Z,98.78
2018-12-17T04:29:28.384Z,99.50
2018-12-17T04:31:55.983Z,99.00
2018-12-17T04:34:23.669Z,99.33
2018-12-17T04:36:51.365Z,100.00
2018-12-17T04:39:18.959Z,100.00
2018-12-17T04:41:47.166Z,99.98
2018-12-17T04:44:15.061Z,99.89
2018-12-17T04:46:42.746Z,100.00
2018-12-17T04:49:10.548Z,99.58
2018-12-17T04:51:38.205Z,100.00
2018-12-17T04:54:05.842Z,99.67
2018-12-17T04:56:34.353Z,99.04
2018-12-17T04:59:01.950Z,99.46
2018-12-17T05:01:30.068Z,99.64
2018-12-17T05:03:58.668Z,99.10
2018-12-17T05:06:26.500Z,98.76
2018-12-17T05:08:54.142Z,98.95
2018-12-17T05:11:21.870Z,99.19
2018-12-17T05:13:49.535Z,98.95
2018-12-17T05:16:17.204Z,99.89
2018-12-17T05:18:44.994Z,99.89
2018-12-17T05:21:12.836Z,99.53
2018-12-17T05:23:40.510Z,99.56
2018-12-17T05:26:08.208Z,100.00
2018-12-17T05:28:35.810Z,99.66
2018-12-17T05:31:03.616Z,99.85
2018-12-17T05:33:31.462Z,100.00
2018-12-17T05:35:59.523Z,100.00
2018-12-17T05:38:27.215Z,100.00
2018-12-17T05:40:55.123Z,99.35
2018-12-17T05:43:22.757Z,99.32
2018-12-17T05:45:51.502Z,99.41
2018-12-17T05:48:21.137Z,98.78
2018-12-17T05:50:48.777Z,98.33
2018-12-17T05:53:18.268Z,98.13
2018-12-17T05:55:45.938Z,98.10
2018-12-17T05:58:14.371Z,98.09
2018-12-17T06:00:41.976Z,97.40
2018-12-17T06:03:09.801Z,97.17
2018-12-17T06:05:37.450Z,97.93
2018-12-17T06:08:05.145Z,98.53
2018-12-17T06:10:32.768Z,97.72
2018-12-17T06:13:00.646Z,98.58
2018-12-17T06:15:28.538Z,98.71
2018-12-17T06:17:56.193Z,98.94
2018-12-17T06:20:25.527Z,98.48
2018-12-17T06:22:54.137Z,98.20
2018-12-17T06:25:22.782Z,98.66
2018-12-17T06:27:50.905Z,97.57
2018-12-17T06:30:20.679Z,96.32
2018-12-17T06:32:48.573Z,96.52
2018-12-17T06:35:17.143Z,96.75
2018-12-17T06:37:44.804Z,97.00
2018-12-17T06:40:12.661Z,97.80
2018-12-17T06:42:40.296Z,98.33
2018-12-17T06:45:08.148Z,98.62
2018-12-17T06:47:36.580Z,99.16
2018-12-17T06:50:05.591Z,99.16
2018-12-17T06:52:33.636Z,99.11
2018-12-17T06:55:03.443Z,98.78
2018-12-17T06:57:31.910Z,99.02
2018-12-17T06:59:59.714Z,98.66
2018-12-17T07:02:27.768Z,98.18
2018-12-17T07:04:56.020Z,98.35
2018-12-17T07:07:24.113Z,98.64
2018-12-17T07:09:51.880Z,98.37
2018-12-17T07:12:20.547Z,98.19
2018-12-17T07:14:48.678Z,98.47
2018-12-17T07:17:19.900Z,97.64
2018-12-17T07:19:47.649Z,97.89
2018-12-17T07:22:15.694Z,99.12
2018-12-17T07:24:43.761Z,99.33
2018-12-17T07:27:11.777Z,98.73
2018-12-17T07:29:39.665Z,97.02
2018-12-17T07:32:08.211Z,96.97
2018-12-17T07:34:35.986Z,97.25
2018-12-17T07:37:04.473Z,97.05
2018-12-17T07:39:33.047Z,97.60
2018-12-17T07:42:02.759Z,97.85
2018-12-17T07:44:31.174Z,97.62
2018-12-17T07:46:59.150Z,97.64
2018-12-17T07:49:28.627Z,97.94
2018-12-17T07:51:56.679Z,97.45
2018-12-17T07:54:24.579Z,96.83
2018-12-17T07:56:53.921Z,94.78
2018-12-17T07:59:21.788Z,89.16
2018-12-17T08:01:50.103Z,83.76
2018-12-17T08:04:20.165Z,80.06
2018-12-17T08:06:47.923Z,79.83
2018-12-17T08:09:16.765Z,82.01
2018-12-17T08:11:47.718Z,83.78
2018-12-17T08:14:22.724Z,79.74
2018-12-17T08:16:56.306Z,78.58
2018-12-17T08:19:30.018Z,80.68
2018-12-17T08:21:58.336Z,82.53
2018-12-17T08:24:28.675Z,82.52
2018-12-17T08:26:56.674Z,83.42
2018-12-17T08:29:26.266Z,83.31
2018-12-17T08:31:57.668Z,87.34
2018-12-17T08:34:27.597Z,90.16
2018-12-17T08:36:55.698Z,89.73
2018-12-17T08:39:24.659Z,91.22
2018-12-17T08:41:55.485Z,90.76
2018-12-17T08:44:24.094Z,89.87
2018-12-17T08:46:54.767Z,89.37
2018-12-17T08:49:24.357Z,88.54
2018-12-17T08:51:57.030Z,90.79
2018-12-17T08:54:26.289Z,89.26
2018-12-17T08:56:54.966Z,91.34
2018-12-17T08:59:22.816Z,92.94
2018-12-17T09:01:50.623Z,92.88
2018-12-17T09:04:18.529Z,92.55
2018-12-17T09:06:46.344Z,91.38
2018-12-17T09:09:14.337Z,88.10
2018-12-17T09:11:44.117Z,87.42
2018-12-17T09:14:14.137Z,87.00
2018-12-17T09:16:44.847Z,89.16
2018-12-17T09:19:15.066Z,91.60
2018-12-17T09:21:43.878Z,92.03
2018-12-17T09:24:13.517Z,91.12
2018-12-17T09:26:43.634Z,88.66
2018-12-17T09:29:16.191Z,89.56
2018-12-17T09:31:46.218Z,88.87
2018-12-17T09:34:20.726Z,87.74
2018-12-17T09:40:19.952Z,83.88
2018-12-17T09:42:49.342Z,83.85
2018-12-17T09:45:17.587Z,85.06
2018-12-17T09:47:50.615Z,83.91
2018-12-17T09:50:19.333Z,83.90
2018-12-17T09:52:48.888Z,85.58
2018-12-17T09:55:19.420Z,84.24
2018-12-17T09:57:48.565Z,82.91
2018-12-17T10:00:25.151Z,83.72
2018-12-17T10:02:49.425Z,85.16
2018-12-17T10:05:18.830Z,85.81
2018-12-17T10:07:48.894Z,85.39
2018-12-17T10:10:17.837Z,83.23
2018-12-17T10:12:48.052Z,83.06
2018-12-17T10:15:18.721Z,84.64
2018-12-17T10:17:46.892Z,85.58
2018-12-17T10:20:14.930Z,85.47
2018-12-17T10:22:42.979Z,86.58
2018-12-17T10:25:10.870Z,89.57
2018-12-17T10:27:39.254Z,90.16
2018-12-17T10:30:07.121Z,86.69
2018-12-17T10:32:34.984Z,86.37
2018-12-17T10:35:03.002Z,86.31
2018-12-17T10:37:30.826Z,85.70
2018-12-17T10:39:59.109Z,86.34
2018-12-17T10:42:27.631Z,86.77
2018-12-17T10:44:55.516Z,83.67
2018-12-17T10:47:23.421Z,81.94
2018-12-17T10:49:51.368Z,83.90
2018-12-17T10:52:19.304Z,77.70
2018-12-17T10:54:47.064Z,75.53
2018-12-17T10:57:15.009Z,76.39
2018-12-17T10:59:42.752Z,74.82
2018-12-17T11:02:13.166Z,73.01
2018-12-17T11:04:42.985Z,72.65
2018-12-17T11:07:10.960Z,71.07
2018-12-17T11:09:40.773Z,72.12
2018-12-17T11:12:08.454Z,74.66
2018-12-17T11:14:37.073Z,73.82
2018-12-17T11:17:04.966Z,76.39
2018-12-17T11:19:32.839Z,75.80
2018-12-17T11:22:00.583Z,74.63
2018-12-17T11:24:28.486Z,75.47
2018-12-17T11:26:56.277Z,78.61
2018-12-17T11:29:24.128Z,79.77
2018-12-17T11:31:52.092Z,79.71
2018-12-17T11:34:20.115Z,77.49
2018-12-17T11:36:48.646Z,76.05
2018-12-17T11:39:16.817Z,80.18
2018-12-17T11:41:44.566Z,80.82
2018-12-17T11:44:12.256Z,81.17
2018-12-17T11:46:40.098Z,81.92
2018-12-17T11:49:07.942Z,77.07
2018-12-17T11:51:35.817Z,77.78
2018-12-17T11:54:04.762Z,76.72
2018-12-17T11:56:40.573Z,74.58
2018-12-17T11:59:08.767Z,79.52
2018-12-17T12:01:36.661Z,81.48
2018-12-17T12:04:04.400Z,81.56
2018-12-17T12:06:32.035Z,80.25
2018-12-17T12:08:59.725Z,80.98
2018-12-17T12:11:27.333Z,82.35
2018-12-17T12:13:54.991Z,84.03
2018-12-17T12:16:22.653Z,84.04
2018-12-17T12:18:50.627Z,81.26
2018-12-17T12:21:18.900Z,79.54
2018-12-17T12:23:46.563Z,81.16
2018-12-17T12:26:14.167Z,82.34
2018-12-17T12:28:41.871Z,82.41
2018-12-17T12:31:09.628Z,84.01
2018-12-17T12:33:37.205Z,84.01
2018-12-17T12:36:04.879Z,81.26
2018-12-17T12:38:32.471Z,81.88
2018-12-17T12:41:00.144Z,79.68
2018-12-17T12:43:29.761Z,82.53
2018-12-17T12:45:57.381Z,83.29
2018-12-17T12:48:25.092Z,84.20
2018-12-17T12:50:52.823Z,84.84
2018-12-17T12:53:20.477Z,85.16
2018-12-17T12:55:48.111Z,84.12
2018-12-17T12:58:15.762Z,84.97
2018-12-17T13:00:43.401Z,85.50
2018-12-17T13:03:11.037Z,85.95
2018-12-17T13:05:38.694Z,85.39
2018-12-17T13:08:06.390Z,86.88
2018-12-17T13:10:35.148Z,87.08
2018-12-17T13:13:02.873Z,87.37
2018-12-17T13:15:30.664Z,84.87
2018-12-17T13:17:58.319Z,86.15
2018-12-17T13:20:25.968Z,87.65
2018-12-17T13:22:53.661Z,87.81
2018-12-17T13:25:23.327Z,88.63
2018-12-17T13:27:50.956Z,86.44
2018-12-17T13:30:18.623Z,85.45
2018-12-17T13:32:46.225Z,84.34
2018-12-17T13:35:13.876Z,84.37
2018-12-17T13:37:41.546Z,85.86
2018-12-17T13:40:09.416Z,85.45
2018-12-17T13:42:37.286Z,87.11
2018-12-17T13:45:06.029Z,86.37
2018-12-17T13:47:33.737Z,88.84
2018-12-17T13:50:03.654Z,88.21
2018-12-17T13:52:36.943Z,87.62
2018-12-17T13:55:05.136Z,89.02
2018-12-17T13:57:32.879Z,88.32
2018-12-17T14:00:01.376Z,88.37
2018-12-17T14:02:29.087Z,87.02
2018-12-17T14:04:56.747Z,90.27
2018-12-17T14:07:24.416Z,89.53
2018-12-17T14:09:57.576Z,89.96
2018-12-17T14:12:25.172Z,89.91
2018-12-17T14:14:53.627Z,89.92
2018-12-17T14:17:26.890Z,90.21
2018-12-17T14:20:00.462Z,90.96
2018-12-17T14:22:28.766Z,90.71
2018-12-17T14:24:56.379Z,90.93
2018-12-17T14:27:24.067Z,89.95
2018-12-17T14:29:51.682Z,89.91
2018-12-17T14:32:19.365Z,90.52
2018-12-17T14:34:47.005Z,92.54
2018-12-17T14:37:14.709Z,93.69
2018-12-17T14:39:42.341Z,93.61
2018-12-17T14:42:10.303Z,94.25
2018-12-17T14:44:38.021Z,93.91
2018-12-17T14:47:05.666Z,95.96
2018-12-17T14:49:33.428Z,96.40
2018-12-17T14:52:01.019Z,96.73
2018-12-17T14:54:28.714Z,95.72
2018-12-17T14:56:56.312Z,96.27
2018-12-17T14:59:24.402Z,95.77
2018-12-17T15:01:52.070Z,94.89
2018-12-17T15:04:19.754Z,95.73
2018-12-17T15:06:47.374Z,96.25
2018-12-17T15:09:15.019Z,96.05
2018-12-17T15:11:42.664Z,96.51
2018-12-17T15:14:11.211Z,97.93
2018-12-17T15:16:38.779Z,98.13
2018-12-17T15:19:06.634Z,99.25
2018-12-17T15:21:34.321Z,98.88
2018-12-17T15:24:02.042Z,98.29
2018-12-17T15:26:34.926Z,98.26
2018-12-17T15:29:08.015Z,98.02
2018-12-17T15:31:42.802Z,98.77
2018-12-17T15:34:07.048Z,97.90
2018-12-17T15:36:35.174Z,99.62
2018-12-17T15:39:03.092Z,100.00
2018-12-17T15:41:30.716Z,99.68
2018-12-17T15:43:58.424Z,100.00
2018-12-17T15:46:26.266Z,100.00
2018-12-17T15:48:53.874Z,100.00
2018-12-17T15:51:21.723Z,100.00
2018-12-17T15:53:49.355Z,100.00
2018-12-17T15:56:17.185Z,100.00
2018-12-17T15:58:44.900Z,100.00
2018-12-17T16:01:12.554Z,100.00
2018-12-17T16:03:40.230Z,100.00
2018-12-17T16:06:07.899Z,100.00
2018-12-17T16:08:35.664Z,100.00
2018-12-17T16:11:03.467Z,100.00
2018-12-17T16:13:31.095Z,100.00
2018-12-17T16:15:58.793Z,100.00
2018-12-17T16:18:26.522Z,100.00
2018-12-17T16:20:54.316Z,100.00
2018-12-17T16:23:21.922Z,100.00
2018-12-17T16:25:49.611Z,100.00
2018-12-17T16:28:17.466Z,100.00
2018-12-17T16:30:45.397Z,100.00
2018-12-17T16:33:14.464Z,100.00
2018-12-17T16:35:42.936Z,100.00
2018-12-17T16:38:10.541Z,100.00
2018-12-17T16:40:38.834Z,100.00
2018-12-17T16:43:06.586Z,100.00
2018-12-17T16:45:34.260Z,100.00
2018-12-17T16:48:02.039Z,100.00
2018-12-17T16:50:29.893Z,100.00
2018-12-17T16:52:57.670Z,100.00
2018-12-17T16:55:25.345Z,100.00
2018-12-17T16:57:53.393Z,100.00
2018-12-17T17:00:21.261Z,100.00
2018-12-17T17:02:49.128Z,100.00
2018-12-17T17:05:17.927Z,100.00
2018-12-17T17:07:45.635Z,100.00
2018-12-17T17:10:13.394Z,100.00
2018-12-17T17:12:42.656Z,100.00
2018-12-17T17:15:10.576Z,100.00
2018-12-17T17:17:38.318Z,100.00
2018-12-17T17:20:07.506Z,100.00
2018-12-17T17:22:35.206Z,100.00
2018-12-17T17:25:02.807Z,100.00
2018-12-17T17:27:31.449Z,100.00
2018-12-17T17:30:00.123Z,100.00
2018-12-17T17:32:27.851Z,100.00
2018-12-17T17:34:55.634Z,100.00
2018-12-17T17:37:23.335Z,100.00
2018-12-17T17:39:51.199Z,100.00
2018-12-17T17:42:20.526Z,100.00
2018-12-17T17:44:48.216Z,100.00
2018-12-17T17:47:17.145Z,100.00
2018-12-17T17:49:44.992Z,100.00
2018-12-17T17:52:13.300Z,100.00
2018-12-17T17:54:41.062Z,100.00
2018-12-17T17:57:08.798Z,100.00
2018-12-17T17:59:36.503Z,100.00
2018-12-17T18:02:04.553Z,100.00
2018-12-17T18:04:32.302Z,100.00
2018-12-17T18:07:00.020Z,100.00
2018-12-17T18:09:27.741Z,100.00
2018-12-17T18:11:55.572Z,100.00
2018-12-17T18:14:23.476Z,100.00
2018-12-17T18:16:51.231Z,100.00
2018-12-17T18:19:19.662Z,100.00
2018-12-17T18:21:47.430Z,100.00
2018-12-17T18:24:15.352Z,100.00
2018-12-17T18:26:43.145Z,100.00
2018-12-17T18:29:11.160Z,100.00
2018-12-17T18:31:38.805Z,100.00
2018-12-17T18:34:06.447Z,100.00
2018-12-17T18:36:34.127Z,100.00
2018-12-17T18:39:02.355Z,100.00
2018-12-17T18:41:30.238Z,100.00
2018-12-17T18:43:58.190Z,100.00
2018-12-17T18:46:25.905Z,100.00
2018-12-17T18:48:53.604Z,100.00
2018-12-17T18:51:21.448Z,100.00
2018-12-17T18:53:51.124Z,100.00
2018-12-17T18:56:18.839Z,100.00
2018-12-17T18:58:46.542Z,100.00
2018-12-17T19:01:14.497Z,100.00
2018-12-17T19:03:42.226Z,100.00
2018-12-17T19:06:09.959Z,100.00
2018-12-17T19:08:37.806Z,100.00
2018-12-17T19:11:05.638Z,100.00
2018-12-17T19:13:33.612Z,100.00
2018-12-17T19:16:01.253Z,100.00
2018-12-17T19:18:29.117Z,100.00
2018-12-17T19:20:57.016Z,100.00
2018-12-17T19:23:24.767Z,100.00
2018-12-17T19:25:52.403Z,100.00
2018-12-17T19:28:20.998Z,100.00
2018-12-17T19:30:48.769Z,100.00
2018-12-17T19:33:16.694Z,100.00
2018-12-17T19:35:44.364Z,100.00
2018-12-17T19:38:12.900Z,100.00
2018-12-17T19:40:40.593Z,100.00
2018-12-17T19:43:09.196Z,100.00
2018-12-17T19:45:36.946Z,100.00
2018-12-17T19:48:04.744Z,100.00
2018-12-17T19:50:32.639Z,100.00
2018-12-17T19:53:00.412Z,100.00
2018-12-17T19:55:28.554Z,100.00
2018-12-17T19:57:57.186Z,100.00
2018-12-17T20:00:24.991Z,100.00
2018-12-17T20:02:53.030Z,100.00
2018-12-17T20:05:20.878Z,100.00
2018-12-17T20:07:51.548Z,100.00
2018-12-17T20:10:21.430Z,100.00
2018-12-17T20:12:49.391Z,100.00
2018-12-17T20:15:17.271Z,100.00
2018-12-17T20:17:45.686Z,100.00
2018-12-17T20:20:13.284Z,100.00
2018-12-17T20:22:41.004Z,100.00
2018-12-17T20:25:08.594Z,100.00
2018-12-17T20:27:36.266Z,100.00
2018-12-17T20:30:05.594Z,100.00
2018-12-17T20:32:33.251Z,100.00
2018-12-17T20:35:00.967Z,100.00
2018-12-17T20:37:28.562Z,100.00
2018-12-17T20:39:56.160Z,100.00
2018-12-17T20:42:23.789Z,100.00
2018-12-17T20:44:51.449Z,100.00
2018-12-17T20:47:19.162Z,100.00
2018-12-17T20:49:47.786Z,100.00
2018-12-17T20:52:15.491Z,100.00
2018-12-17T20:54:43.200Z,100.00
2018-12-17T20:57:11.323Z,100.00
2018-12-17T20:59:38.906Z,100.00
2018-12-17T21:02:06.588Z,100.00
2018-12-17T21:04:34.281Z,100.00
2018-12-17T21:07:01.930Z,100.00
2018-12-17T21:09:29.655Z,100.00
2018-12-17T21:11:57.291Z,100.00
2018-12-17T21:14:24.984Z,100.00
2018-12-17T21:16:52.747Z,100.00
2018-12-17T21:19:20.827Z,100.00
2018-12-17T21:21:49.665Z,100.00
2018-12-17T21:24:17.383Z,100.00
2018-12-17T21:26:45.084Z,100.00
2018-12-17T21:29:12.830Z,100.00
2018-12-17T21:31:40.538Z,100.00
2018-12-17T21:34:08.350Z,100.00
2018-12-17T21:36:36.120Z,100.00
2018-12-17T21:39:05.268Z,100.00
2018-12-17T21:41:33.013Z,100.00
2018-12-17T21:44:00.733Z,100.00
2018-12-17T21:46:28.647Z,100.00
2018-12-17T21:48:56.409Z,100.00
2018-12-17T21:51:24.124Z,100.00
2018-12-17T21:53:51.833Z,100.00
2018-12-17T21:56:19.401Z,100.00
2018-12-17T21:58:47.023Z,100.00
2018-12-17T22:01:15.580Z,100.00
2018-12-17T22:03:43.439Z,100.00
2018-12-17T22:06:11.095Z,100.00
2018-12-17T22:08:38.802Z,100.00
2018-12-17T22:11:06.583Z,100.00
2018-12-17T22:13:34.231Z,100.00
2018-12-17T22:16:01.895Z,100.00
2018-12-17T22:18:29.598Z,100.00
2018-12-17T22:20:57.422Z,100.00
2018-12-17T22:23:25.180Z,100.00
2018-12-17T22:25:53.114Z,100.00
2018-12-17T22:28:21.040Z,100.00
2018-12-17T22:30:49.074Z,100.00
2018-12-17T22:33:19.648Z,100.00
2018-12-17T22:35:46.514Z,100.00
2018-12-17T22:38:14.185Z,100.00
2018-12-17T22:40:41.882Z,100.00
2018-12-17T22:43:09.620Z,100.00
2018-12-17T22:45:37.234Z,100.00
2018-12-17T22:48:04.983Z,100.00
2018-12-17T22:50:32.628Z,100.00
2018-12-17T22:53:00.349Z,100.00
2018-12-17T22:55:28.419Z,100.00
2018-12-17T22:57:56.108Z,100.00
2018-12-17T23:00:23.942Z,100.00
2018-12-17T23:02:51.596Z,100.00
2018-12-17T23:05:19.245Z,100.00
2018-12-17T23:07:46.892Z,100.00
2018-12-17T23:10:26.360Z,100.00
2018-12-17T23:13:05.832Z,100.00
2018-12-17T23:15:45.488Z,100.00
2018-12-17T23:18:14.263Z,100.00
2018-12-17T23:20:43.280Z,100.00
2018-12-17T23:23:10.935Z,100.00
2018-12-17T23:25:38.649Z,100.00
2018-12-17T23:28:08.422Z,100.00
2018-12-17T23:30:36.197Z,100.00
2018-12-17T23:33:03.846Z,100.00
2018-12-17T23:35:31.520Z,100.00
2018-12-17T23:37:59.196Z,100.00
2018-12-17T23:40:26.888Z,100.00
2018-12-17T23:42:54.628Z,100.00
2018-12-17T23:45:22.259Z,100.00
2018-12-17T23:47:49.897Z,100.00
2018-12-17T23:50:17.614Z,100.00
2018-12-17T23:52:45.289Z,100.00
2018-12-17T23:55:12.978Z,100.00
2018-12-17T23:57:40.664Z,100.00
